createdAt,value
2022-09-28T00:01:21.184Z,269.60
2022-09-28T00:03:53.771Z,260.60
2022-09-28T00:06:26.387Z,254.80
2022-09-28T00:08:58.291Z,252.40
2022-09-28T00:11:30.627Z,242.00
2022-09-28T00:14:05.139Z,245.80
2022-09-28T00:16:39.904Z,249.80
2022-09-28T00:19:11.048Z,240.40
2022-09-28T00:21:43.845Z,246.00
2022-09-28T00:24:16.583Z,238.40
2022-09-28T00:26:50.603Z,277.25
2022-09-28T00:29:23.898Z,301.33
2022-09-28T00:32:01.259Z,298.33
2022-09-28T00:34:34.351Z,245.20
2022-09-28T00:37:06.410Z,208.20
2022-09-28T00:39:37.503Z,244.60
2022-09-28T00:42:14.649Z,291.25
2022-09-28T00:44:52.096Z,129.80
2022-09-28T00:47:28.380Z,55.80
2022-09-28T00:50:02.179Z,268.20
2022-09-28T00:52:36.286Z,134.80
2022-09-28T00:55:11.379Z,313.00
2022-09-28T00:57:44.888Z,264.80
2022-09-28T01:00:17.334Z,231.60
2022-09-28T01:02:50.573Z,201.40
2022-09-28T01:05:22.334Z,273.40
2022-09-28T01:07:54.107Z,236.40
2022-09-28T01:10:26.228Z,93.00
2022-09-28T01:12:58.699Z,98.20
2022-09-28T01:15:31.430Z,72.40
2022-09-28T01:18:11.236Z,255.40
2022-09-28T01:21:03.577Z,75.20
2022-09-28T01:23:49.759Z,64.20
2022-09-28T01:26:41.974Z,131.00
2022-09-28T01:29:19.717Z,57.25
2022-09-28T01:31:55.842Z,62.50
2022-09-28T01:34:30.360Z,60.00
2022-09-28T01:37:05.234Z,55.00
2022-09-28T01:39:39.766Z,60.25
2022-09-28T01:42:13.915Z,60.25
2022-09-28T01:44:48.848Z,219.75
2022-09-28T01:47:23.338Z,136.20
2022-09-28T01:49:59.322Z,248.40
2022-09-28T01:52:34.014Z,106.40
2022-09-28T01:55:09.800Z,108.80
2022-09-28T01:57:44.299Z,89.40
2022-09-28T02:00:19.552Z,92.60
2022-09-28T02:02:57.648Z,71.80
2022-09-28T02:05:50.392Z,69.40
2022-09-28T02:08:26.950Z,66.40
2022-09-28T02:11:02.227Z,70.20
2022-09-28T02:13:36.297Z,70.00
2022-09-28T02:16:13.847Z,80.00
2022-09-28T02:18:45.935Z,64.00
2022-09-28T02:21:21.315Z,62.75
2022-09-28T02:23:56.042Z,69.75
2022-09-28T02:26:30.702Z,69.75
2022-09-28T02:29:03.112Z,70.50
2022-09-28T02:31:36.603Z,73.60
2022-09-28T02:34:08.151Z,102.40
2022-09-28T02:36:39.524Z,85.20
2022-09-28T02:39:16.733Z,69.40
2022-09-28T02:41:55.926Z,69.80
2022-09-28T02:44:39.947Z,83.80
2022-09-28T02:47:18.854Z,80.20
2022-09-28T02:49:53.465Z,89.20
2022-09-28T02:52:40.821Z,98.80
2022-09-28T02:55:25.093Z,90.40
2022-09-28T02:58:09.245Z,85.80
2022-09-28T03:00:46.534Z,95.20
2022-09-28T03:03:21.921Z,89.20
2022-09-28T03:05:59.689Z,175.75
2022-09-28T03:08:37.572Z,86.60
2022-09-28T03:11:15.978Z,106.40
2022-09-28T03:13:50.447Z,86.40
2022-09-28T03:16:25.067Z,80.40
2022-09-28T03:18:58.494Z,79.60
2022-09-28T03:21:29.923Z,75.80
2022-09-28T03:24:02.129Z,84.40
2022-09-28T03:26:34.041Z,76.20
2022-09-28T03:29:05.920Z,68.80
2022-09-28T03:31:38.454Z,76.25
2022-09-28T03:34:11.760Z,72.25
2022-09-28T03:36:43.346Z,71.50
2022-09-28T03:39:15.074Z,67.00
2022-09-28T03:41:46.552Z,73.40
2022-09-28T03:44:17.870Z,144.75
2022-09-28T03:46:50.580Z,82.60
2022-09-28T03:49:24.064Z,68.50
2022-09-28T03:51:55.476Z,62.25
2022-09-28T03:54:28.109Z,64.60
2022-09-28T03:56:59.699Z,67.75
2022-09-28T03:59:32.570Z,64.50
2022-09-28T04:02:04.277Z,82.75
2022-09-28T04:04:37.825Z,114.20
2022-09-28T04:07:09.197Z,62.20
2022-09-28T04:09:40.572Z,69.75
2022-09-28T04:12:11.978Z,60.75
2022-09-28T04:14:43.703Z,231.75
2022-09-28T04:17:15.936Z,314.50
2022-09-28T04:19:49.488Z,277.50
2022-09-28T04:22:43.598Z,174.75
2022-09-28T04:25:14.721Z,223.25
2022-09-28T04:28:03.073Z,273.40
2022-09-28T04:30:35.021Z,156.80
2022-09-28T04:33:06.359Z,253.80
2022-09-28T04:35:39.442Z,248.25
2022-09-28T04:38:10.693Z,252.50
2022-09-28T04:40:42.428Z,255.00
2022-09-28T04:43:14.294Z,265.80
2022-09-28T04:45:45.862Z,306.75
2022-09-28T04:48:17.425Z,301.75
2022-09-28T04:51:08.969Z,281.00
2022-09-28T04:53:41.596Z,90.60
2022-09-28T04:56:15.265Z,71.80
2022-09-28T04:58:52.550Z,56.00
2022-09-28T05:01:26.460Z,52.75
2022-09-28T05:03:57.749Z,51.00
2022-09-28T05:06:53.984Z,219.40
2022-09-28T05:09:25.215Z,49.50
2022-09-28T05:11:56.919Z,81.25
2022-09-28T05:14:29.682Z,38.25
2022-09-28T05:17:02.104Z,45.00
2022-09-28T05:20:13.472Z,60.00
2022-09-28T05:22:47.507Z,52.00
2022-09-28T05:25:19.969Z,45.80
2022-09-28T05:28:05.047Z,92.00
2022-09-28T05:31:15.613Z,59.40
2022-09-28T05:34:12.795Z,60.50
2022-09-28T05:36:47.150Z,58.25
2022-09-28T05:39:24.545Z,35.00
2022-09-28T05:41:56.219Z,41.80
2022-09-28T05:44:28.182Z,41.80
2022-09-28T05:47:01.484Z,47.60
2022-09-28T05:49:34.055Z,300.75
2022-09-28T05:52:06.063Z,266.75
2022-09-28T05:54:43.934Z,289.00
2022-09-28T05:57:15.733Z,222.00
2022-09-28T05:59:47.520Z,38.60
2022-09-28T06:02:18.681Z,107.00
2022-09-28T06:04:52.616Z,53.75
2022-09-28T06:07:24.859Z,59.25
2022-09-28T06:09:58.180Z,56.80
2022-09-28T06:12:44.883Z,200.25
2022-09-28T06:15:19.368Z,191.80
2022-09-28T06:17:51.179Z,245.50
2022-09-28T06:20:39.586Z,187.00
2022-09-28T06:23:19.402Z,110.00
2022-09-28T06:25:52.740Z,54.50
2022-09-28T06:28:24.403Z,109.40
2022-09-28T06:30:55.761Z,53.20
2022-09-28T06:33:27.910Z,21.80
2022-09-28T06:35:59.363Z,22.60
2022-09-28T06:38:31.107Z,35.00
2022-09-28T06:41:04.791Z,218.00
2022-09-28T06:43:37.099Z,186.00
2022-09-28T06:46:17.513Z,206.00
2022-09-28T06:48:53.025Z,70.60
2022-09-28T06:51:45.599Z,57.60
2022-09-28T06:54:27.288Z,47.25
2022-09-28T06:57:08.482Z,21.40
2022-09-28T06:59:41.318Z,20.00
2022-09-28T07:02:16.005Z,22.00
2022-09-28T07:05:05.908Z,16.00
2022-09-28T07:07:58.605Z,12.20
2022-09-28T07:10:51.923Z,21.60
2022-09-28T07:13:51.130Z,29.40
2022-09-28T07:16:37.940Z,77.40
2022-09-28T07:19:20.092Z,49.40
2022-09-28T07:22:03.445Z,99.00
2022-09-28T07:24:36.660Z,35.25
2022-09-28T07:27:28.961Z,23.40
2022-09-28T07:30:35.304Z,29.00
2022-09-28T07:33:20.246Z,186.00
2022-09-28T07:35:58.250Z,266.50
2022-09-28T07:38:33.659Z,67.00
2022-09-28T07:41:23.139Z,124.40
2022-09-28T07:43:56.194Z,145.80
2022-09-28T07:46:29.737Z,23.50
2022-09-28T07:49:09.959Z,28.40
2022-09-28T07:51:58.722Z,19.00
2022-09-28T07:54:33.240Z,31.60
2022-09-28T07:57:25.097Z,10.20
2022-09-28T08:00:07.103Z,19.00
2022-09-28T08:02:52.977Z,20.00
2022-09-28T08:05:32.874Z,20.00
2022-09-28T08:08:05.220Z,26.20
2022-09-28T08:10:37.119Z,23.40
2022-09-28T08:13:27.895Z,20.20
2022-09-28T08:16:04.585Z,51.00
2022-09-28T08:18:45.320Z,43.50
2022-09-28T08:21:33.898Z,24.00
2022-09-28T08:24:05.584Z,9.00
2022-09-28T08:26:37.924Z,25.60
2022-09-28T08:29:09.771Z,28.80
2022-09-28T08:32:09.732Z,16.00
2022-09-28T08:35:18.632Z,23.20
2022-09-28T08:38:08.474Z,23.40
2022-09-28T08:41:06.910Z,25.60
2022-09-28T08:44:00.826Z,121.00
2022-09-28T08:46:43.500Z,185.20
2022-09-28T08:49:38.432Z,142.40
2022-09-28T08:52:33.904Z,31.50
2022-09-28T08:55:36.418Z,58.00
2022-09-28T08:58:14.369Z,191.40
2022-09-28T09:00:49.291Z,111.75
2022-09-28T09:03:25.195Z,73.20
2022-09-28T09:06:21.905Z,18.80
2022-09-28T09:09:04.049Z,12.40
2022-09-28T09:11:46.373Z,114.40
2022-09-28T09:14:25.361Z,24.40
2022-09-28T09:17:01.256Z,21.80
2022-09-28T09:19:55.628Z,15.40
2022-09-28T09:22:42.493Z,13.60
2022-09-28T09:25:23.748Z,21.80
2022-09-28T09:28:06.345Z,10.80
2022-09-28T09:30:44.742Z,18.80
2022-09-28T09:33:31.553Z,16.20
2022-09-28T09:36:29.691Z,11.80
2022-09-28T09:39:29.947Z,22.60
2022-09-28T09:42:38.650Z,26.00
2022-09-28T09:45:43.923Z,23.40
2022-09-28T09:48:44.324Z,22.40
2022-09-28T09:51:20.992Z,15.40
2022-09-28T09:53:55.187Z,14.20
2022-09-28T09:56:31.423Z,19.80
2022-09-28T09:59:25.910Z,18.20
2022-09-28T10:02:16.703Z,21.80
2022-09-28T10:04:57.915Z,23.60
2022-09-28T10:07:43.412Z,20.20
2022-09-28T10:10:17.028Z,22.60
2022-09-28T10:12:53.593Z,22.00
2022-09-28T10:15:28.688Z,24.00
2022-09-28T10:18:19.257Z,26.80
2022-09-28T10:21:09.906Z,24.20
2022-09-28T10:24:05.457Z,17.20
2022-09-28T10:26:39.275Z,22.20
2022-09-28T10:29:17.605Z,21.60
2022-09-28T10:31:53.125Z,21.20
2022-09-28T10:34:31.872Z,23.20
2022-09-28T10:37:13.149Z,21.20
2022-09-28T10:40:03.925Z,26.20
2022-09-28T10:42:39.336Z,24.40
2022-09-28T10:45:24.898Z,24.60
2022-09-28T10:47:58.101Z,25.60
2022-09-28T10:50:31.579Z,114.20
2022-09-28T10:53:15.490Z,107.60
2022-09-28T10:56:05.789Z,95.40
2022-09-28T10:58:40.805Z,116.25
2022-09-28T11:01:18.473Z,130.50
2022-09-28T11:03:55.702Z,16.00
2022-09-28T11:06:29.226Z,23.00
2022-09-28T11:09:01.747Z,24.40
2022-09-28T11:11:34.593Z,61.40
2022-09-28T11:14:08.784Z,27.20
2022-09-28T11:16:40.180Z,192.80
2022-09-28T11:19:31.620Z,20.80
2022-09-28T11:22:04.531Z,53.20
2022-09-28T11:24:40.199Z,38.40
2022-09-28T11:27:22.518Z,23.20
2022-09-28T11:29:58.679Z,145.50
2022-09-28T11:32:45.288Z,126.75
2022-09-28T11:35:26.708Z,58.80
2022-09-28T11:38:05.777Z,28.40
2022-09-28T11:41:06.216Z,16.40
2022-09-28T11:43:51.378Z,54.25
2022-09-28T11:46:29.165Z,89.75
2022-09-28T11:49:14.213Z,24.00
2022-09-28T11:51:49.532Z,41.00
2022-09-28T11:54:28.157Z,17.20
2022-09-28T11:57:01.395Z,33.00
2022-09-28T11:59:35.178Z,72.20
2022-09-28T12:02:13.813Z,87.25
2022-09-28T12:04:56.078Z,133.80
2022-09-28T12:07:33.302Z,16.20
2022-09-28T12:10:11.795Z,16.80
2022-09-28T12:12:49.076Z,30.80
2022-09-28T12:15:22.970Z,18.20
2022-09-28T12:17:56.683Z,26.60
2022-09-28T12:20:30.310Z,25.60
2022-09-28T12:23:08.444Z,9.40
2022-09-28T12:25:43.981Z,26.50
2022-09-28T12:28:21.886Z,86.00
2022-09-28T12:30:54.939Z,223.60
2022-09-28T12:33:26.625Z,285.00
2022-09-28T12:36:04.380Z,263.20
2022-09-28T12:38:48.266Z,52.50
2022-09-28T12:41:40.760Z,38.75
2022-09-28T12:44:27.465Z,64.40
2022-09-28T12:47:11.607Z,44.50
2022-09-28T12:50:56.961Z,250.20
2022-09-28T12:52:53.362Z,230.40
2022-09-28T12:55:35.245Z,34.25
2022-09-28T12:58:10.079Z,70.00
2022-09-28T13:00:47.477Z,26.80
2022-09-28T13:03:36.667Z,176.00
2022-09-28T13:06:17.612Z,28.00
2022-09-28T13:08:54.932Z,34.20
2022-09-28T13:11:34.606Z,55.50
2022-09-28T13:14:18.676Z,31.00
2022-09-28T13:17:00.546Z,37.00
2022-09-28T13:19:37.476Z,41.60
2022-09-28T13:22:16.455Z,39.60
2022-09-28T13:24:49.190Z,33.50
2022-09-28T13:27:25.963Z,39.40
2022-09-28T13:29:58.794Z,159.60
2022-09-28T13:32:35.007Z,107.20
2022-09-28T13:35:07.032Z,41.50
2022-09-28T13:37:38.619Z,41.00
2022-09-28T13:40:11.102Z,54.25
2022-09-28T13:43:03.078Z,99.75
2022-09-28T13:45:42.802Z,48.75
2022-09-28T13:48:16.938Z,103.00
2022-09-28T13:51:09.069Z,95.75
2022-09-28T13:53:48.895Z,61.80
2022-09-28T13:56:28.963Z,105.25
2022-09-28T13:59:03.595Z,141.75
2022-09-28T14:01:41.207Z,174.50
2022-09-28T14:04:17.266Z,132.25
2022-09-28T14:06:55.615Z,164.00
2022-09-28T14:09:28.946Z,131.60
2022-09-28T14:12:01.737Z,235.20
2022-09-28T14:14:52.984Z,235.25
2022-09-28T14:17:56.857Z,164.00
2022-09-28T14:20:32.969Z,33.40
2022-09-28T14:23:19.028Z,40.25
2022-09-28T14:26:03.941Z,59.20
2022-09-28T14:28:41.909Z,121.60
2022-09-28T14:31:18.764Z,32.80
2022-09-28T14:33:58.406Z,67.00
2022-09-28T14:36:52.881Z,35.80
2022-09-28T14:39:41.567Z,43.80
2022-09-28T14:42:17.148Z,38.20
2022-09-28T14:45:06.210Z,38.25
2022-09-28T14:47:39.538Z,42.00
2022-09-28T14:50:21.905Z,41.40
2022-09-28T14:52:56.237Z,45.80
2022-09-28T14:55:31.467Z,37.00
2022-09-28T14:58:02.457Z,46.80
2022-09-28T15:00:34.423Z,47.60
2022-09-28T15:03:12.055Z,49.20
2022-09-28T15:05:45.981Z,46.00
2022-09-28T15:08:22.516Z,49.00
2022-09-28T15:10:54.025Z,45.25
2022-09-28T15:13:28.629Z,47.00
2022-09-28T15:16:03.986Z,53.00
2022-09-28T15:19:02.548Z,45.20
2022-09-28T15:21:38.312Z,54.00
2022-09-28T15:24:24.110Z,50.00
2022-09-28T15:26:58.285Z,53.75
2022-09-28T15:29:32.976Z,52.50
2022-09-28T15:32:05.521Z,53.50
2022-09-28T15:34:56.443Z,54.00
2022-09-28T15:37:29.036Z,50.00
2022-09-28T15:40:01.445Z,54.75
2022-09-28T15:42:39.332Z,50.00
2022-09-28T15:45:26.357Z,56.00
2022-09-28T15:48:05.992Z,54.25
2022-09-28T15:50:38.250Z,52.25
2022-09-28T15:53:09.917Z,51.00
2022-09-28T15:55:42.682Z,51.00
2022-09-28T15:58:20.732Z,52.50
2022-09-28T16:00:53.089Z,55.00
2022-09-28T16:03:31.277Z,54.50
2022-09-28T16:06:12.278Z,53.50
2022-09-28T16:08:44.350Z,50.25
2022-09-28T16:11:18.688Z,50.25
2022-09-28T16:13:59.401Z,55.00
2022-09-28T16:16:32.752Z,54.50
2022-09-28T16:19:05.092Z,54.50
2022-09-28T16:21:47.757Z,47.00
2022-09-28T16:24:24.056Z,55.25
2022-09-28T16:27:01.654Z,59.00
2022-09-28T16:29:41.609Z,56.25
2022-09-28T16:32:35.437Z,58.00
2022-09-28T16:35:28.333Z,56.00
2022-09-28T16:38:02.921Z,56.50
2022-09-28T16:40:36.883Z,55.00
2022-09-28T16:43:09.107Z,54.25
2022-09-28T16:45:42.174Z,60.00
2022-09-28T16:48:16.015Z,55.00
2022-09-28T16:50:48.022Z,54.25
2022-09-28T16:53:37.093Z,263.40
2022-09-28T16:56:08.571Z,282.00
2022-09-28T16:58:40.524Z,236.20
2022-09-28T17:01:15.007Z,195.00
2022-09-28T17:03:55.665Z,262.50
2022-09-28T17:06:27.736Z,50.40
2022-09-28T17:09:00.342Z,66.75
2022-09-28T17:11:31.980Z,70.00
2022-09-28T17:14:04.411Z,79.00
2022-09-28T17:17:06.223Z,150.00
2022-09-28T17:19:30.454Z,126.50
2022-09-28T17:22:01.922Z,81.20
2022-09-28T17:24:33.119Z,73.80
2022-09-28T17:27:05.067Z,67.75
2022-09-28T17:29:36.668Z,57.75
2022-09-28T17:32:15.797Z,123.20
2022-09-28T17:34:55.802Z,70.00
2022-09-28T17:37:38.962Z,59.00
2022-09-28T17:40:23.040Z,87.20
2022-09-28T17:42:57.480Z,73.00
2022-09-28T17:45:30.170Z,49.25
2022-09-28T17:48:02.946Z,56.50
2022-09-28T17:50:35.499Z,105.00
2022-09-28T17:53:07.902Z,102.00
2022-09-28T17:55:42.709Z,305.40
2022-09-28T17:58:18.764Z,254.00
2022-09-28T18:00:50.765Z,227.40
2022-09-28T18:03:24.264Z,114.25
2022-09-28T18:06:02.095Z,206.80
2022-09-28T18:08:33.078Z,223.25
2022-09-28T18:11:04.797Z,119.25
2022-09-28T18:13:36.499Z,65.00
2022-09-28T18:16:08.338Z,58.00
2022-09-28T18:18:41.349Z,62.00
2022-09-28T18:21:13.077Z,61.75
2022-09-28T18:23:45.061Z,62.50
2022-09-28T18:26:16.758Z,60.00
2022-09-28T18:28:48.172Z,60.75
2022-09-28T18:31:20.544Z,135.80
2022-09-28T18:33:53.128Z,63.25
2022-09-28T18:36:24.669Z,59.00
2022-09-28T18:38:56.166Z,233.80
2022-09-28T18:41:27.579Z,114.75
2022-09-28T18:44:02.092Z,114.75
2022-09-28T18:46:37.416Z,54.80
2022-09-28T18:49:10.621Z,179.40
2022-09-28T18:51:42.302Z,73.50
2022-09-28T18:54:15.041Z,62.00
2022-09-28T18:56:47.080Z,211.60
2022-09-28T18:59:18.575Z,163.50
2022-09-28T19:01:50.312Z,285.80
2022-09-28T19:04:23.556Z,303.00
2022-09-28T19:06:55.954Z,257.80
2022-09-28T19:09:27.987Z,59.40
2022-09-28T19:11:59.561Z,54.50
2022-09-28T19:14:31.855Z,54.00
